Time;durP1;ratioP1;P1;durP2;ratioP2;P2;SDS_P1;SDS_P2;PMS_P1;PMS_P2;Temp;Humidity;BMP_temperature;BMP_pressure;BME280_temperature;BME280_humidity;BME280_pressure;Samples;Min_cycle;Max_cycle;Signal;HPM_P1;HPM_P2
2023/05/06 00:02:07;;;;;;;;;2.67;2.67;;;;;17.82;63.41;100858.84;4955511;28;45364;-59
2023/05/06 00:04:33;;;;;;;;;4.00;3.00;;;;;17.80;63.29;100859.91;4954317;28;45411;-60
2023/05/06 00:06:58;;;;;;;;;3.00;3.00;;;;;17.79;63.66;100855.53;4955281;28;45470;-60
2023/05/06 00:09:23;;;;;;;;;3.00;3.00;;;;;17.78;63.87;100854.63;4954298;28;45503;-60
2023/05/06 00:11:49;;;;;;;;;4.00;4.00;;;;;17.78;63.48;100859.09;4954601;28;45641;-60
2023/05/06 00:14:15;;;;;;;;;4.00;3.00;;;;;17.76;63.47;100853.00;4955130;28;45566;-62
2023/05/06 00:16:40;;;;;;;;;4.00;4.00;;;;;17.76;63.42;100861.00;4958017;28;45449;-59
2023/05/06 00:19:06;;;;;;;;;2.67;2.67;;;;;17.74;63.42;100861.09;4958866;28;45444;-60
2023/05/06 00:21:31;;;;;;;;;2.67;2.00;;;;;17.73;63.37;100854.09;4958001;28;45460;-63
2023/05/06 00:23:56;;;;;;;;;2.00;2.00;;;;;17.75;63.24;100857.47;4958425;28;45504;-59
2023/05/06 00:26:22;;;;;;;;;4.00;4.00;;;;;17.71;63.40;100848.00;4957901;28;51048;-59
2023/05/06 00:28:47;;;;;;;;;3.67;3.00;;;;;17.71;63.44;100858.63;4957809;28;59936;-59
2023/05/06 00:31:12;;;;;;;;;3.67;2.00;;;;;17.71;63.53;100847.16;4957664;28;47240;-59
2023/05/06 00:33:38;;;;;;;;;2.00;2.00;;;;;17.70;63.51;100859.56;4958676;28;45584;-60
2023/05/06 00:36:03;;;;;;;;;3.00;3.00;;;;;17.67;63.20;100855.28;4951695;28;45476;-59
2023/05/06 00:38:29;;;;;;;;;3.00;3.00;;;;;17.65;63.71;100846.56;4957835;28;45467;-59
2023/05/06 00:40:54;;;;;;;;;4.00;3.00;;;;;17.64;63.66;100839.50;4958420;28;45446;-60
2023/05/06 00:43:19;;;;;;;;;5.00;3.00;;;;;17.62;63.77;100833.47;4956546;28;45761;-60
2023/05/06 00:45:45;;;;;;;;;5.67;4.33;;;;;17.65;63.75;100841.25;4957551;28;47486;-60
2023/05/06 00:48:11;;;;;;;;;3.67;3.67;;;;;17.65;63.71;100840.38;4958039;28;45427;-60
2023/05/06 00:50:39;;;;;;;;;2.00;2.00;;;;;17.60;63.80;100842.47;4957214;28;45305;-59
2023/05/06 00:53:07;;;;;;;;;4.67;4.67;;;;;17.63;63.49;100856.44;4957255;28;45538;-60
2023/05/06 00:55:33;;;;;;;;;7.33;7.33;;;;;17.59;63.69;100840.75;4957433;28;45455;-60
2023/05/06 00:57:59;;;;;;;;;4.00;4.00;;;;;17.60;63.53;100845.97;4958126;28;45466;-60
2023/05/06 01:00:25;;;;;;;;;4.00;4.00;;;;;17.56;63.69;100836.47;4957740;28;45558;-60
2023/05/06 01:02:51;;;;;;;;;3.00;3.00;;;;;17.59;63.75;100838.94;4957945;28;45454;-60
2023/05/06 01:05:20;;;;;;;;;4.33;3.00;;;;;17.59;63.48;100848.72;4957874;28;45467;-60
2023/05/06 01:08:04;;;;;;;;;3.00;3.00;;;;;17.58;63.32;100841.72;4957899;28;45686;-60
2023/05/06 01:10:37;;;;;;;;;3.00;3.00;;;;;17.51;63.78;100833.22;4949230;28;45472;-60
2023/05/06 01:13:14;;;;;;;;;4.00;3.67;;;;;17.55;63.45;100844.56;4957806;28;45395;-59
2023/05/06 01:15:49;;;;;;;;;3.67;3.67;;;;;17.54;63.44;100840.16;4956531;28;45570;-59
2023/05/06 01:18:16;;;;;;;;;2.33;2.33;;;;;17.53;63.45;100839.31;4957694;28;45505;-60
2023/05/06 01:20:46;;;;;;;;;1.00;1.00;;;;;17.53;63.68;100838.47;4957426;28;45434;-60
2023/05/06 01:23:13;;;;;;;;;3.00;3.00;;;;;17.50;63.52;100841.31;4956987;28;45549;-60
2023/05/06 01:25:39;;;;;;;;;4.67;4.67;;;;;17.50;63.20;100838.66;4956947;28;45438;-60
2023/05/06 01:28:09;;;;;;;;;3.33;3.33;;;;;17.51;63.67;100835.03;4957732;28;45499;-60
2023/05/06 01:30:42;;;;;;;;;3.33;3.33;;;;;17.46;63.54;100840.63;4953716;28;45461;-59
2023/05/06 01:33:15;;;;;;;;;4.67;4.67;;;;;17.46;63.50;100827.31;4957299;28;45588;-59
2023/05/06 01:36:07;;;;;;;;;4.00;4.00;;;;;17.48;63.57;100830.75;4957336;28;46014;-59
2023/05/06 01:38:46;;;;;;;;;4.67;4.00;;;;;17.44;63.61;100824.78;4956653;28;45339;-60
2023/05/06 01:41:15;;;;;;;;;4.33;3.00;;;;;17.43;63.49;100831.03;4952679;28;46650;-60
2023/05/06 01:43:43;;;;;;;;;4.67;3.67;;;;;17.43;63.49;100831.03;4949872;28;45646;-59
2023/05/06 01:46:14;;;;;;;;;5.00;5.00;;;;;17.37;63.96;100823.44;4956230;28;45661;-60
2023/05/06 01:48:41;;;;;;;;;3.00;3.00;;;;;17.38;63.54;100819.84;4957379;28;45658;-60
2023/05/06 01:51:07;;;;;;;;;4.00;3.00;;;;;17.40;63.87;100822.38;4957567;28;45501;-59
2023/05/06 01:53:32;;;;;;;;;3.00;3.00;;;;;17.41;63.92;100824.13;4957118;28;45627;-60
2023/05/06 01:55:57;;;;;;;;;5.67;4.00;;;;;17.39;63.66;100821.53;4956413;28;45494;-59
2023/05/06 01:58:23;;;;;;;;;4.00;4.00;;;;;17.40;63.66;100812.59;4957523;28;45426;-59
2023/05/06 02:00:48;;;;;;;;;4.00;4.00;;;;;17.39;63.83;100820.69;4956625;28;45545;-60
2023/05/06 02:03:13;;;;;;;;;3.00;3.00;;;;;17.37;63.59;100811.94;4954229;28;45370;-60
2023/05/06 02:05:39;;;;;;;;;2.00;2.00;;;;;17.35;63.42;100814.69;4956911;28;61420;-60
2023/05/06 02:08:04;;;;;;;;;4.33;4.33;;;;;17.32;63.84;100814.03;4956288;28;56948;-60
2023/05/06 02:10:29;;;;;;;;;5.33;5.33;;;;;17.29;64.14;100815.06;4946849;28;45332;-59
2023/05/06 02:12:55;;;;;;;;;4.33;4.33;;;;;17.28;63.80;100816.03;4956734;28;45592;-59
2023/05/06 02:15:20;;;;;;;;;3.67;3.67;;;;;17.27;64.02;100819.59;4957155;28;48937;-59
2023/05/06 02:17:45;;;;;;;;;4.00;4.00;;;;;17.23;63.62;100821.59;4970909;28;45510;-60
2023/05/06 02:20:11;;;;;;;;;4.00;3.00;;;;;17.23;63.80;100820.75;4954688;28;45673;-59
2023/05/06 02:22:36;;;;;;;;;5.33;3.33;;;;;17.24;63.85;100822.44;4957058;28;45488;-59
2023/05/06 02:25:02;;;;;;;;;5.00;5.00;;;;;17.22;64.17;100814.59;4956310;28;45438;-59
2023/05/06 02:27:28;;;;;;;;;6.00;6.00;;;;;17.21;64.35;100815.50;4957119;28;45500;-60
2023/05/06 02:29:53;;;;;;;;;4.00;4.00;;;;;17.23;64.26;100815.44;4956241;28;45481;-60
2023/05/06 02:32:19;;;;;;;;;4.00;4.00;;;;;17.22;64.09;100817.25;4956979;28;45637;-60
2023/05/06 02:34:44;;;;;;;;;5.67;4.67;;;;;17.20;64.03;100811.16;4956149;28;45734;-59
2023/05/06 02:37:09;;;;;;;;;5.00;5.00;;;;;17.19;64.10;100816.56;4956503;28;45451;-60
2023/05/06 02:39:35;;;;;;;;;4.67;4.67;;;;;17.21;64.44;100817.31;4956330;28;45470;-58
2023/05/06 02:42:01;;;;;;;;;3.67;3.67;;;;;17.19;64.42;100816.56;4956594;28;53267;-60
2023/05/06 02:44:26;;;;;;;;;4.67;3.00;;;;;17.18;64.02;100814.84;4956117;28;45605;-59
2023/05/06 02:46:51;;;;;;;;;5.67;4.67;;;;;17.17;64.10;100815.81;4956657;28;45420;-60
2023/05/06 02:49:17;;;;;;;;;3.67;3.67;;;;;17.13;63.99;100815.13;4956146;28;45391;-59
2023/05/06 02:51:42;;;;;;;;;4.67;4.67;;;;;17.15;64.26;100817.69;4957122;28;45689;-59
2023/05/06 02:54:07;;;;;;;;;7.00;5.00;;;;;17.12;64.27;100799.28;4955240;28;61173;-59
2023/05/06 02:56:34;;;;;;;;;4.67;4.00;;;;;17.14;64.37;100808.00;4956785;28;45456;-59
2023/05/06 02:58:59;;;;;;;;;4.33;4.33;;;;;17.12;64.46;100805.44;4956098;28;45450;-60
2023/05/06 03:01:24;;;;;;;;;5.00;5.00;;;;;17.13;64.36;100806.28;4956671;28;45372;-60
2023/05/06 03:03:50;;;;;;;;;3.67;3.67;;;;;17.12;64.36;100800.13;4955817;28;51695;-60
2023/05/06 03:06:15;;;;;;;;;5.00;5.00;;;;;17.14;64.34;100802.69;4957434;28;45352;-59
2023/05/06 03:08:40;;;;;;;;;4.00;4.00;;;;;17.16;64.16;100806.97;4971057;28;45739;-59
2023/05/06 03:11:06;;;;;;;;;4.33;4.33;;;;;17.16;64.08;100803.44;4955312;28;45655;-59
2023/05/06 03:13:31;;;;;;;;;3.67;3.67;;;;;17.13;64.53;100799.16;4956382;28;49202;-60
2023/05/06 03:15:56;;;;;;;;;5.00;5.00;;;;;17.14;64.48;100800.03;4954264;28;45507;-59
2023/05/06 03:18:21;;;;;;;;;5.33;4.33;;;;;17.12;64.79;100802.78;4943413;28;53544;-59
2023/05/06 03:20:47;;;;;;;;;6.00;5.67;;;;;17.12;64.24;100793.97;4954064;28;45577;-59
2023/05/06 03:23:13;;;;;;;;;3.67;2.00;;;;;17.09;64.47;100794.16;4953706;28;46147;-59
2023/05/06 03:25:38;;;;;;;;;6.00;6.00;;;;;17.10;64.65;100798.50;4955931;28;45442;-59
2023/05/06 03:28:04;;;;;;;;;5.00;4.00;;;;;17.12;64.53;100797.47;4956395;28;45453;-60
2023/05/06 03:30:29;;;;;;;;;7.00;5.67;;;;;17.09;64.46;100791.50;4956210;28;45370;-60
2023/05/06 03:32:55;;;;;;;;;6.00;5.00;;;;;17.11;64.69;100797.53;4956145;28;45877;-60
2023/05/06 03:35:21;;;;;;;;;4.67;4.67;;;;;17.09;64.87;100783.53;4955568;28;45485;-59
2023/05/06 03:37:47;;;;;;;;;4.00;3.67;;;;;17.11;64.79;100793.09;4956326;28;45499;-60
2023/05/06 03:40:12;;;;;;;;;4.67;4.67;;;;;17.13;64.36;100795.66;4955857;28;45451;-60
2023/05/06 03:42:37;;;;;;;;;7.33;7.00;;;;;17.10;64.83;100793.19;4955938;28;46959;-59
2023/05/06 03:45:05;;;;;;;;;5.00;5.00;;;;;17.05;64.80;100779.31;4954592;28;47445;-60
2023/05/06 03:47:30;;;;;;;;;5.33;5.33;;;;;17.03;64.58;100786.53;4954263;28;45510;-60
2023/05/06 03:49:55;;;;;;;;;6.33;6.33;;;;;17.01;64.64;100778.66;4957931;28;45485;-59
2023/05/06 03:52:21;;;;;;;;;5.00;5.00;;;;;17.06;64.82;100789.00;4958049;28;50595;-59
2023/05/06 03:54:46;;;;;;;;;5.00;5.00;;;;;17.04;64.61;100790.91;4959200;28;45443;-60
2023/05/06 03:57:11;;;;;;;;;5.00;5.00;;;;;17.05;64.75;100798.78;4958249;28;45580;-59
2023/05/06 03:59:37;;;;;;;;;4.33;4.33;;;;;17.03;64.77;100789.19;4958750;28;45560;-60
2023/05/06 04:02:02;;;;;;;;;4.00;4.00;;;;;17.03;64.86;100789.19;4955228;28;56891;-59
2023/05/06 04:04:27;;;;;;;;;5.33;5.00;;;;;17.02;64.88;100790.13;4954839;28;45505;-60
2023/05/06 04:06:53;;;;;;;;;6.00;6.00;;;;;17.00;65.06;100787.56;4954766;28;45574;-59
2023/05/06 04:09:18;;;;;;;;;6.33;5.00;;;;;16.99;65.04;100792.03;4944775;28;45422;-59
2023/05/06 04:11:43;;;;;;;;;5.00;5.00;;;;;16.98;64.98;100798.28;4952405;28;48008;-60
2023/05/06 04:14:08;;;;;;;;;4.33;4.33;;;;;16.98;64.80;100789.47;4956367;28;48503;-60
2023/05/06 04:16:34;;;;;;;;;6.00;6.00;;;;;16.98;65.00;100792.13;4954314;28;45529;-60
2023/05/06 04:19:00;;;;;;;;;8.00;6.33;;;;;16.95;64.98;100786.97;4952860;28;45571;-62
2023/05/06 04:21:25;;;;;;;;;6.00;6.00;;;;;16.95;65.46;100794.94;4946874;28;45730;-62
2023/05/06 04:23:51;;;;;;;;;6.00;6.00;;;;;16.95;65.40;100787.84;4957884;28;45455;-59
2023/05/06 04:26:16;;;;;;;;;6.00;6.00;;;;;16.92;65.38;100777.38;4956710;28;45517;-59
2023/05/06 04:28:41;;;;;;;;;6.00;6.00;;;;;16.93;65.26;100784.41;4955068;28;45645;-59
2023/05/06 04:31:07;;;;;;;;;6.67;6.67;;;;;16.88;65.31;100772.34;4948064;28;46276;-59
2023/05/06 04:33:33;;;;;;;;;5.00;5.00;;;;;16.89;65.12;100780.22;4955042;28;45376;-59
2023/05/06 04:35:59;;;;;;;;;5.33;5.33;;;;;16.86;65.66;100777.75;4958237;28;45410;-59
2023/05/06 04:38:29;;;;;;;;;5.00;5.00;;;;;16.86;64.98;100769.78;4951243;28;45462;-58
2023/05/06 04:40:54;;;;;;;;;9.00;7.33;;;;;16.91;65.57;100769.50;4953148;28;46519;-59
2023/05/06 04:43:19;;;;;;;;;7.00;7.00;;;;;16.91;65.38;100769.50;4950960;28;45355;-58
2023/05/06 04:45:48;;;;;;;;;6.00;5.00;;;;;16.92;65.21;100765.91;4957880;28;45560;-59
2023/05/06 04:48:16;;;;;;;;;6.00;6.00;;;;;16.92;65.28;100772.06;4949389;28;45602;-59
2023/05/06 04:50:41;;;;;;;;;6.33;6.00;;;;;16.95;65.36;100766.59;4948042;28;46003;-59
2023/05/06 04:53:08;;;;;;;;;6.67;6.67;;;;;16.94;65.39;100766.66;4957081;28;45507;-59
2023/05/06 04:55:33;;;;;;;;;5.33;5.00;;;;;16.95;65.82;100765.72;4956895;28;45616;-59
2023/05/06 04:57:58;;;;;;;;;5.00;5.00;;;;;16.94;65.50;100767.53;4957997;28;48039;-59
2023/05/06 05:00:26;;;;;;;;;6.33;4.67;;;;;16.94;65.64;100772.84;4955007;28;53726;-59
2023/05/06 05:02:51;;;;;;;;;4.67;4.67;;;;;16.87;65.34;100760.00;4949286;28;45553;-59
2023/05/06 05:05:17;;;;;;;;;6.67;5.67;;;;;16.93;65.74;100776.44;4957351;28;45384;-58
2023/05/06 05:07:42;;;;;;;;;6.33;5.00;;;;;16.97;65.38;100779.78;4956426;28;45757;-59
2023/05/06 05:10:09;;;;;;;;;6.67;6.67;;;;;16.97;65.35;100783.28;4956245;28;46176;-59
2023/05/06 05:12:34;;;;;;;;;8.00;6.67;;;;;16.99;65.42;100786.72;4956186;28;45839;-59
2023/05/06 05:14:59;;;;;;;;;7.00;7.00;;;;;16.97;65.43;100788.59;4957681;28;45439;-60
2023/05/06 05:17:25;;;;;;;;;6.00;4.67;;;;;17.00;65.54;100787.56;4955225;28;45447;-62
2023/05/06 05:19:51;;;;;;;;;5.33;5.33;;;;;16.97;65.64;100782.44;4958028;28;47997;-59
2023/05/06 05:22:16;;;;;;;;;7.00;6.00;;;;;16.94;65.05;100788.78;4956959;28;45538;-59
2023/05/06 05:24:42;;;;;;;;;7.00;6.00;;;;;17.04;64.98;100801.53;4956925;28;48489;-59
2023/05/06 05:27:07;;;;;;;;;6.33;6.33;;;;;17.00;64.91;100796.38;4957304;28;45493;-59
2023/05/06 05:29:32;;;;;;;;;5.67;5.67;;;;;17.00;65.23;100804.34;4955944;28;46073;-59
2023/05/06 05:31:58;;;;;;;;;6.33;6.33;;;;;17.02;65.25;100798.94;4957004;28;45605;-58
2023/05/06 05:34:23;;;;;;;;;6.67;6.67;;;;;17.03;65.39;100805.97;4957459;28;45401;-59
2023/05/06 05:36:48;;;;;;;;;5.33;5.33;;;;;17.04;65.30;100806.84;4957121;28;45622;-59
2023/05/06 05:39:14;;;;;;;;;5.67;5.00;;;;;17.07;65.45;100812.84;4956654;28;54389;-59
2023/05/06 05:41:39;;;;;;;;;5.00;5.00;;;;;17.01;65.49;100805.22;4957672;28;45547;-59
2023/05/06 05:44:05;;;;;;;;;5.00;5.00;;;;;17.06;65.09;100812.91;4956966;28;45409;-59
2023/05/06 05:46:30;;;;;;;;;7.67;7.67;;;;;17.07;65.49;100807.50;4957571;28;45600;-59
2023/05/06 05:48:56;;;;;;;;;6.67;6.67;;;;;17.07;65.56;100804.84;4953760;28;46149;-62
2023/05/06 05:51:21;;;;;;;;;10.33;9.00;;;;;17.10;65.13;100817.97;4948166;28;45478;-59
2023/05/06 05:53:46;;;;;;;;;9.00;9.00;;;;;17.08;65.55;100805.72;4954220;28;45457;-61
2023/05/06 05:56:12;;;;;;;;;8.33;7.33;;;;;17.09;65.71;100812.75;4956640;28;45632;-61
2023/05/06 05:58:37;;;;;;;;;8.67;8.00;;;;;17.08;65.50;100811.03;4956678;28;46287;-61
2023/05/06 06:01:03;;;;;;;;;7.67;7.67;;;;;17.08;65.31;100817.19;4956145;28;45560;-60
2023/05/06 06:03:28;;;;;;;;;9.00;9.00;;;;;17.06;65.56;100815.56;4956485;28;45515;-59
2023/05/06 06:05:54;;;;;;;;;9.00;8.00;;;;;17.07;65.63;100815.50;4954413;28;45572;-60
2023/05/06 06:08:19;;;;;;;;;8.00;7.67;;;;;17.08;65.55;100819.00;4957033;28;46016;-60
2023/05/06 06:10:46;;;;;;;;;6.33;6.33;;;;;17.08;65.64;100817.19;4954974;28;45403;-60
2023/05/06 06:13:11;;;;;;;;;8.00;7.00;;;;;17.07;65.82;100828.78;4957195;28;45480;-60
2023/05/06 06:15:36;;;;;;;;;4.67;4.67;;;;;17.09;65.25;100831.34;4956092;28;45376;-61
2023/05/06 06:18:02;;;;;;;;;6.00;6.00;;;;;17.09;65.51;100823.38;4956246;28;46124;-60
2023/05/06 06:20:27;;;;;;;;;9.00;7.00;;;;;17.11;65.75;100829.44;4955498;28;45566;-60
2023/05/06 06:22:52;;;;;;;;;8.00;7.00;;;;;17.14;65.40;100837.22;4956513;28;45518;-60
2023/05/06 06:25:18;;;;;;;;;5.67;5.67;;;;;17.15;65.45;100833.63;4957244;28;45553;-60
2023/05/06 06:27:43;;;;;;;;;7.33;6.33;;;;;17.17;65.54;100837.06;4955609;28;46041;-60
2023/05/06 06:30:09;;;;;;;;;9.00;9.00;;;;;17.16;65.15;100822.06;4956261;28;45490;-60
2023/05/06 06:32:34;;;;;;;;;8.33;8.33;;;;;17.21;65.65;100825.28;4951622;28;45530;-60
2023/05/06 06:34:59;;;;;;;;;8.00;8.00;;;;;17.21;65.28;100826.16;4956978;28;45450;-59
2023/05/06 06:37:25;;;;;;;;;9.33;8.33;;;;;17.25;65.19;100833.94;4952478;28;45485;-60
2023/05/06 06:39:50;;;;;;;;;7.33;7.33;;;;;17.27;65.33;100829.38;4955897;28;45415;-60
2023/05/06 06:42:16;;;;;;;;;10.33;10.00;;;;;17.29;65.44;100828.34;4955800;28;45530;-60
2023/05/06 06:44:41;;;;;;;;;11.33;10.33;;;;;17.28;65.49;100816.03;4956632;28;45545;-60
2023/05/06 06:47:06;;;;;;;;;8.00;7.00;;;;;17.34;65.18;100812.97;4955798;28;45354;-60
2023/05/06 06:49:31;;;;;;;;;9.00;7.00;;;;;17.33;65.37;100811.28;4956438;28;45479;-59
2023/05/06 06:51:57;;;;;;;;;10.67;9.00;;;;;17.39;65.27;100820.69;4952122;28;49548;-60
2023/05/06 06:54:22;;;;;;;;;9.67;9.00;;;;;17.39;65.36;100816.22;4954441;28;45577;-60
2023/05/06 06:56:48;;;;;;;;;9.00;9.00;;;;;17.38;65.12;100822.50;4951909;28;45617;-61
2023/05/06 06:59:13;;;;;;;;;9.33;9.33;;;;;17.44;64.91;100832.75;4956413;28;45423;-61
2023/05/06 07:01:40;;;;;;;;;10.00;9.33;;;;;17.44;64.92;100824.78;4952722;28;45407;-60
2023/05/06 07:04:06;;;;;;;;;9.67;9.67;;;;;17.47;64.79;100831.72;4952467;28;45584;-60
2023/05/06 07:06:31;;;;;;;;;8.67;8.67;;;;;17.49;64.67;100842.25;4954565;28;45562;-59
2023/05/06 07:08:56;;;;;;;;;9.33;8.33;;;;;17.51;64.97;100838.53;4956510;28;45728;-61
2023/05/06 07:11:22;;;;;;;;;11.00;10.00;;;;;17.55;65.42;100836.59;4955076;28;51929;-62
2023/05/06 07:13:47;;;;;;;;;10.00;9.00;;;;;17.55;64.93;100837.44;4944924;28;45492;-61
2023/05/06 07:16:12;;;;;;;;;11.00;10.00;;;;;17.58;65.00;100839.03;4949903;28;45945;-63
2023/05/06 07:18:37;;;;;;;;;9.67;8.33;;;;;17.59;65.19;100830.09;4954043;28;52840;-62
2023/05/06 07:21:03;;;;;;;;;8.33;8.33;;;;;17.61;64.97;100836.19;4955265;28;45362;-61
2023/05/06 07:23:28;;;;;;;;;8.00;7.00;;;;;17.62;64.70;100833.47;4959392;28;45557;-61
2023/05/06 07:25:54;;;;;;;;;6.00;6.00;;;;;17.62;65.01;100838.78;4959517;28;46412;-59
2023/05/06 07:28:19;;;;;;;;;9.00;7.67;;;;;17.62;65.02;100838.78;4959488;28;45641;-60
2023/05/06 07:30:45;;;;;;;;;9.00;8.33;;;;;17.69;64.92;100841.06;4959099;28;45462;-59
2023/05/06 07:33:10;;;;;;;;;9.00;9.00;;;;;17.70;64.44;100826.78;4956827;28;45504;-60
2023/05/06 07:35:39;;;;;;;;;8.00;7.33;;;;;17.73;64.59;100831.91;4958547;28;45501;-61
2023/05/06 07:38:04;;;;;;;;;8.33;8.33;;;;;17.74;64.67;100837.16;4958062;28;45383;-60
2023/05/06 07:40:30;;;;;;;;;7.00;7.00;;;;;17.77;64.31;100833.47;4957986;28;45336;-61
2023/05/06 07:42:55;;;;;;;;;11.33;10.33;;;;;17.78;64.69;100843.97;4958967;28;45643;-60
2023/05/06 07:45:22;;;;;;;;;9.00;9.00;;;;;17.80;64.91;100842.13;4957942;28;48372;-61
2023/05/06 07:47:47;;;;;;;;;10.67;9.67;;;;;17.77;64.76;100841.44;4958935;28;45554;-59
2023/05/06 07:50:13;;;;;;;;;11.00;9.67;;;;;17.82;64.75;100842.91;4958517;28;45561;-59
2023/05/06 07:52:38;;;;;;;;;10.67;9.00;;;;;17.83;65.21;100852.56;4959148;28;45552;-61
2023/05/06 07:55:04;;;;;;;;;13.67;13.67;;;;;17.84;65.00;100848.97;4958707;28;46137;-59
2023/05/06 07:57:29;;;;;;;;;12.67;10.00;;;;;17.88;64.98;100850.50;4958911;28;45429;-59
2023/05/06 07:59:54;;;;;;;;;9.00;7.67;;;;;17.90;65.04;100846.91;4959020;28;45422;-59
2023/05/06 08:02:20;;;;;;;;;9.00;9.00;;;;;17.91;64.85;100845.94;4958830;28;45454;-61
2023/05/06 08:04:45;;;;;;;;;12.67;10.00;;;;;17.93;64.78;100857.34;4958456;28;45476;-62
2023/05/06 08:07:11;;;;;;;;;8.00;8.00;;;;;17.94;64.23;100851.91;4959417;28;45524;-60
2023/05/06 08:09:36;;;;;;;;;6.33;6.33;;;;;17.96;64.67;100854.50;4958214;28;45472;-61
2023/05/06 08:12:02;;;;;;;;;11.00;9.00;;;;;17.96;64.63;100847.34;4958656;28;45481;-61
2023/05/06 08:14:27;;;;;;;;;7.33;7.33;;;;;18.00;64.37;100848.00;4957895;28;46136;-61
2023/05/06 08:16:53;;;;;;;;;6.67;6.00;;;;;18.03;64.32;100856.69;4958676;28;45459;-60
2023/05/06 08:19:20;;;;;;;;;7.67;7.67;;;;;18.04;64.17;100852.19;4958961;28;45476;-61
2023/05/06 08:21:45;;;;;;;;;6.00;6.00;;;;;18.06;64.04;100852.97;4957907;28;45428;-61
2023/05/06 08:24:12;;;;;;;;;7.00;7.00;;;;;18.10;63.97;100851.81;4958252;28;46297;-61
2023/05/06 08:26:38;;;;;;;;;9.33;8.33;;;;;18.15;64.42;100852.38;4958333;28;45462;-59
2023/05/06 08:29:03;;;;;;;;;9.00;9.00;;;;;18.16;64.79;100850.56;4956071;28;45442;-60
2023/05/06 08:31:28;;;;;;;;;9.00;9.00;;;;;18.18;64.37;100852.19;4954433;28;51107;-53
2023/05/06 08:33:54;;;;;;;;;7.00;7.00;;;;;18.19;64.01;100848.59;4957376;28;45503;-56
2023/05/06 08:36:19;;;;;;;;;8.67;8.67;;;;;18.17;64.71;100845.16;4957975;28;45521;-55
2023/05/06 08:38:49;;;;;;;;;9.00;8.33;;;;;18.19;64.16;100848.59;4957994;28;45491;-56
2023/05/06 08:41:18;;;;;;;;;9.33;9.33;;;;;18.21;64.00;100843.16;4958314;28;45451;-57
2023/05/06 08:43:45;;;;;;;;;7.00;7.00;;;;;18.23;63.88;100846.56;4957652;28;45364;-58
2023/05/06 08:46:11;;;;;;;;;7.33;7.00;;;;;18.28;64.15;100848.00;4957536;28;45446;-57
2023/05/06 08:48:37;;;;;;;;;5.00;5.00;;;;;18.31;63.32;100841.63;4972806;28;45409;-55
2023/05/06 08:51:03;;;;;;;;;8.67;8.67;;;;;18.30;63.29;100842.59;4957533;28;45443;-57
2023/05/06 08:53:29;;;;;;;;;10.00;8.00;;;;;18.32;62.76;100848.63;4957790;28;45498;-58
2023/05/06 08:55:56;;;;;;;;;8.67;8.67;;;;;18.36;63.11;100846.66;4957393;28;45506;-57
2023/05/06 08:58:24;;;;;;;;;8.67;8.33;;;;;18.35;63.68;100843.16;4957513;28;45807;-59
2023/05/06 09:00:50;;;;;;;;;8.67;8.33;;;;;18.39;63.09;100847.31;4940590;28;45512;-58
2023/05/06 09:03:15;;;;;;;;;10.00;10.00;;;;;18.37;63.42;100838.56;4957165;28;45407;-59
2023/05/06 09:05:41;;;;;;;;;8.00;8.00;;;;;18.42;63.49;100849.75;4957339;28;45361;-58
2023/05/06 09:08:06;;;;;;;;;13.33;7.67;;;;;18.44;63.51;100849.69;4957872;28;45505;-58
2023/05/06 09:10:36;;;;;;;;;6.33;6.33;;;;;18.45;63.18;100857.56;4942984;28;45727;-58
2023/05/06 09:13:02;;;;;;;;;7.33;7.33;;;;;18.47;63.31;100852.16;4953377;28;46056;-57
2023/05/06 09:15:38;;;;;;;;;8.00;7.00;;;;;18.48;63.13;100851.19;4947499;28;53389;-58
2023/05/06 09:18:04;;;;;;;;;7.33;7.33;;;;;18.49;62.35;100844.91;4948777;28;45601;-60
2023/05/06 09:20:35;;;;;;;;;6.33;6.33;;;;;18.50;63.22;100847.47;4952054;28;45526;-56
2023/05/06 09:23:01;;;;;;;;;7.67;7.67;;;;;18.46;62.29;100840.66;4953514;28;45512;-57
2023/05/06 09:25:28;;;;;;;;;10.00;8.00;;;;;18.53;62.71;100846.41;4949899;28;45466;-56
2023/05/06 09:28:08;;;;;;;;;7.00;7.00;;;;;18.52;62.58;100842.06;4941570;28;45507;-59
2023/05/06 09:30:38;;;;;;;;;9.00;9.00;;;;;18.58;63.08;100851.44;4949397;28;45531;-58
2023/05/06 09:33:04;;;;;;;;;7.00;7.00;;;;;18.56;62.85;100846.22;4953890;28;46223;-59
2023/05/06 09:35:35;;;;;;;;;8.00;8.00;;;;;18.56;62.60;100848.88;4955972;28;45377;-53
2023/05/06 09:38:01;;;;;;;;;9.00;9.00;;;;;18.56;62.85;100843.53;4952100;28;45482;-50
2023/05/06 09:40:28;;;;;;;;;8.00;8.00;;;;;18.56;62.97;100838.22;4946522;28;45351;-51
2023/05/06 09:42:55;;;;;;;;;7.00;7.00;;;;;18.54;63.19;100837.50;4951360;28;46264;-58
2023/05/06 09:45:20;;;;;;;;;9.00;9.00;;;;;18.58;63.58;100832.81;4954607;28;45522;-59
2023/05/06 09:47:48;;;;;;;;;9.00;9.00;;;;;18.61;62.49;100833.44;4949013;28;45534;-59
2023/05/06 09:50:14;;;;;;;;;11.00;11.00;;;;;18.63;62.73;100831.56;4956296;28;45561;-58
2023/05/06 09:52:43;;;;;;;;;10.33;8.67;;;;;18.66;62.47;100828.69;4956732;28;45454;-58
2023/05/06 09:55:10;;;;;;;;;7.33;6.00;;;;;18.64;63.40;100809.25;4956566;28;45394;-58
2023/05/06 09:57:36;;;;;;;;;4.33;4.33;;;;;18.72;62.72;100817.59;4956776;28;45510;-59
2023/05/06 10:00:03;;;;;;;;;6.33;5.00;;;;;18.80;62.70;100824.28;4956707;28;45545;-58
2023/05/06 10:02:29;;;;;;;;;5.33;5.33;;;;;18.83;61.77;100821.41;4956727;28;46209;-59
2023/05/06 10:04:56;;;;;;;;;5.67;5.00;;;;;18.86;61.20;100823.88;4956601;28;45396;-58
2023/05/06 10:07:22;;;;;;;;;5.33;5.33;;;;;18.85;60.78;100824.84;4957505;28;45491;-59
2023/05/06 10:09:48;;;;;;;;;9.00;6.00;;;;;18.84;61.31;100812.47;4956825;28;45682;-58
2023/05/06 10:12:15;;;;;;;;;8.00;7.00;;;;;18.86;60.09;100822.09;4955467;28;45500;-59
2023/05/06 10:14:40;;;;;;;;;4.67;4.67;;;;;18.87;59.70;100818.44;4956576;28;45484;-59
2023/05/06 10:17:08;;;;;;;;;4.33;4.33;;;;;18.90;60.61;100817.41;4955738;28;45964;-59
2023/05/06 10:19:34;;;;;;;;;7.67;7.67;;;;;18.88;60.75;100819.31;4954966;28;45406;-59
2023/05/06 10:22:11;;;;;;;;;7.00;6.00;;;;;18.88;60.57;100811.31;4955222;28;46371;-59
2023/05/06 10:24:48;;;;;;;;;5.67;5.67;;;;;18.90;60.51;100812.06;4956657;28;45538;-59
2023/05/06 10:27:19;;;;;;;;;5.33;4.67;;;;;18.93;60.46;100812.69;4956968;28;45407;-59
2023/05/06 10:29:47;;;;;;;;;6.00;6.00;;;;;18.95;60.57;100808.13;4956473;28;45483;-59
2023/05/06 10:32:12;;;;;;;;;6.33;6.33;;;;;19.01;60.39;100811.34;4956478;28;46234;-59
2023/05/06 10:34:53;;;;;;;;;7.00;7.00;;;;;19.02;60.66;100811.25;4956421;28;45402;-58
2023/05/06 10:37:24;;;;;;;;;7.00;7.00;;;;;19.03;60.13;100812.09;4955429;28;45646;-60
2023/05/06 10:39:53;;;;;;;;;6.67;5.33;;;;;19.05;59.76;100808.38;4956266;28;45409;-60
2023/05/06 10:42:19;;;;;;;;;45.00;38.00;;;;;19.07;59.77;100803.78;4956208;28;45479;-61
2023/05/06 10:44:59;;;;;;;;;6.00;5.67;;;;;19.07;59.39;100803.78;4948717;28;45662;-65
2023/05/06 10:47:25;;;;;;;;;17.33;15.67;;;;;19.06;59.31;100794.06;4951342;28;45517;-62
2023/05/06 10:50:22;;;;;;;;;42.00;36.33;;;;;19.15;58.91;100796.09;4948445;28;45561;-58
2023/05/06 10:52:51;;;;;;;;;8.00;8.00;;;;;19.18;58.71;100795.03;4954627;28;46135;-61
2023/05/06 10:55:30;;;;;;;;;5.67;4.33;;;;;19.20;58.45;100785.13;4951376;28;45491;-62
2023/05/06 10:58:17;;;;;;;;;4.67;4.67;;;;;19.18;59.00;100785.25;4949227;28;45538;-60
2023/05/06 11:00:53;;;;;;;;;12.67;12.67;;;;;19.23;58.99;100789.41;4943505;28;45567;-62
2023/05/06 11:03:22;;;;;;;;;11.00;10.00;;;;;19.26;58.50;100787.38;4952265;28;46634;-61
2023/05/06 11:05:48;;;;;;;;;14.33;14.33;;;;;19.26;58.61;100774.03;4950770;28;45624;-61
2023/05/06 11:08:20;;;;;;;;;11.00;10.33;;;;;19.31;58.50;100776.41;4956348;28;45470;-60
2023/05/06 11:10:46;;;;;;;;;15.33;15.33;;;;;19.35;58.30;100778.75;4949784;28;45526;-54
2023/05/06 11:13:20;;;;;;;;;8.00;8.00;;;;;19.36;58.34;100772.44;4953977;28;47045;-55
2023/05/06 11:15:49;;;;;;;;;4.00;3.00;;;;;19.35;58.62;100764.56;4955338;28;45412;-57
2023/05/06 11:18:23;;;;;;;;;5.00;3.67;;;;;19.40;57.77;100765.97;4948882;28;45534;-58
2023/05/06 11:21:01;;;;;;;;;5.33;4.00;;;;;19.45;57.51;100762.09;4953606;28;45372;-57
2023/05/06 11:23:45;;;;;;;;;9.00;9.00;;;;;19.48;57.17;100769.88;4953644;28;45586;-57